Time;durP1;ratioP1;P1;durP2;ratioP2;P2;SDS_P1;SDS_P2;PMS_P1;PMS_P2;Temp;Humidity;BMP_temperature;BMP_pressure;BME280_temperature;BME280_humidity;BME280_pressure;Samples;Min_cycle;Max_cycle;Signal;HPM_P1;HPM_P2
2023/09/09 00:01:30;;;;;;;9.87;4.90;;;;;;;;;;5034880;28;20485;-69
2023/09/09 00:03:59;;;;;;;7.97;4.47;;;;;;;;;;5033888;28;20466;-68
2023/09/09 00:06:26;;;;;;;7.03;4.07;;;;;;;;;;5034526;28;20546;-68
2023/09/09 00:08:53;;;;;;;10.63;4.23;;;;;;;;;;5034896;28;20534;-69
2023/09/09 00:11:20;;;;;;;6.00;5.00;;;;;;;;;;5035094;28;20513;-68
2023/09/09 00:13:47;;;;;;;5.93;4.00;;;;;;;;;;5033930;28;20530;-68
2023/09/09 00:16:14;;;;;;;6.70;5.00;;;;;;;;;;5034070;28;20446;-68
2023/09/09 00:18:41;;;;;;;5.30;4.60;;;;;;;;;;5034876;28;20922;-68
2023/09/09 00:21:10;;;;;;;5.60;4.27;;;;;;;;;;5034682;28;20455;-68
2023/09/09 00:23:37;;;;;;;7.73;5.17;;;;;;;;;;5033839;28;20446;-68
2023/09/09 00:26:04;;;;;;;6.43;4.63;;;;;;;;;;5034259;28;20997;-68
2023/09/09 00:28:31;;;;;;;10.17;5.80;;;;;;;;;;5034798;28;20447;-68
2023/09/09 00:30:58;;;;;;;9.37;4.60;;;;;;;;;;5034081;28;20450;-68
2023/09/09 00:33:25;;;;;;;5.10;4.03;;;;;;;;;;5033404;28;20862;-67
2023/09/09 00:35:52;;;;;;;6.00;3.87;;;;;;;;;;5034189;28;20805;-67
2023/09/09 00:38:22;;;;;;;7.10;4.50;;;;;;;;;;5035199;28;20459;-68
2023/09/09 00:41:04;;;;;;;7.00;3.83;;;;;;;;;;5034433;28;20442;-68
2023/09/09 00:43:31;;;;;;;5.33;4.00;;;;;;;;;;5022305;28;20482;-68
2023/09/09 00:45:58;;;;;;;6.97;4.00;;;;;;;;;;5032978;28;20483;-68
2023/09/09 00:48:25;;;;;;;8.10;4.10;;;;;;;;;;5033776;28;20447;-68
2023/09/09 00:50:52;;;;;;;7.80;4.63;;;;;;;;;;5033686;28;20952;-68
2023/09/09 00:53:19;;;;;;;7.87;4.90;;;;;;;;;;5033058;28;20945;-69
2023/09/09 00:55:48;;;;;;;5.00;4.03;;;;;;;;;;5033875;28;20514;-67
2023/09/09 00:58:15;;;;;;;6.93;4.33;;;;;;;;;;5034225;28;20447;-69
2023/09/09 01:00:42;;;;;;;6.50;4.50;;;;;;;;;;5033319;28;20443;-69
2023/09/09 01:03:09;;;;;;;8.43;4.80;;;;;;;;;;5034231;28;20467;-68
2023/09/09 01:05:38;;;;;;;6.27;3.67;;;;;;;;;;5033997;28;20493;-68
2023/09/09 01:08:05;;;;;;;5.87;4.10;;;;;;;;;;5033031;28;20447;-68
2023/09/09 01:10:33;;;;;;;6.20;4.67;;;;;;;;;;5033375;28;20450;-68
2023/09/09 01:13:01;;;;;;;6.70;4.33;;;;;;;;;;5033781;28;20913;-69
2023/09/09 01:15:28;;;;;;;5.73;4.37;;;;;;;;;;5033158;28;20527;-69
2023/09/09 01:17:55;;;;;;;5.87;4.70;;;;;;;;;;5033306;28;20443;-68
2023/09/09 01:20:25;;;;;;;5.70;4.30;;;;;;;;;;5033368;28;20443;-68
2023/09/09 01:22:55;;;;;;;6.00;3.90;;;;;;;;;;5033485;28;20459;-69
2023/09/09 01:25:22;;;;;;;5.77;3.63;;;;;;;;;;5031824;28;20446;-69
2023/09/09 01:27:49;;;;;;;5.40;3.40;;;;;;;;;;5032586;28;20566;-68
2023/09/09 01:30:16;;;;;;;6.90;4.37;;;;;;;;;;5033205;28;20880;-69
2023/09/09 01:32:44;;;;;;;5.90;4.03;;;;;;;;;;5032965;28;20553;-68
2023/09/09 01:35:11;;;;;;;4.97;3.43;;;;;;;;;;5032783;28;20446;-68
2023/09/09 01:37:38;;;;;;;7.13;4.57;;;;;;;;;;5014964;28;20450;-69
2023/09/09 01:40:10;;;;;;;6.47;3.53;;;;;;;;;;5019656;28;20972;-70
2023/09/09 01:42:38;;;;;;;6.30;3.53;;;;;;;;;;5031649;28;20953;-68
2023/09/09 01:45:05;;;;;;;5.17;4.00;;;;;;;;;;5032963;28;20858;-69
2023/09/09 01:47:32;;;;;;;5.53;4.17;;;;;;;;;;5032300;28;20510;-69
2023/09/09 01:49:59;;;;;;;6.17;4.33;;;;;;;;;;5032743;28;20872;-70
2023/09/09 01:52:26;;;;;;;4.43;3.40;;;;;;;;;;5032257;28;20462;-68
2023/09/09 01:54:54;;;;;;;9.67;5.20;;;;;;;;;;5032853;28;20473;-69
2023/09/09 01:57:26;;;;;;;5.97;4.60;;;;;;;;;;5032442;28;20490;-69
2023/09/09 01:59:53;;;;;;;5.80;3.63;;;;;;;;;;5032871;28;20455;-69
2023/09/09 02:02:20;;;;;;;5.50;4.57;;;;;;;;;;5032022;28;20471;-69
2023/09/09 02:04:47;;;;;;;8.63;4.70;;;;;;;;;;5031852;28;20518;-69
2023/09/09 02:07:14;;;;;;;5.23;3.73;;;;;;;;;;5030898;28;20475;-69
2023/09/09 02:09:42;;;;;;;6.67;4.10;;;;;;;;;;5032208;28;20442;-69
2023/09/09 02:12:09;;;;;;;5.93;4.03;;;;;;;;;;5032325;28;21068;-69
2023/09/09 02:14:38;;;;;;;9.10;4.60;;;;;;;;;;5032276;28;20454;-69
2023/09/09 02:17:05;;;;;;;7.00;5.00;;;;;;;;;;5031639;28;20444;-68
2023/09/09 02:19:32;;;;;;;4.70;3.73;;;;;;;;;;5031930;28;20522;-69
2023/09/09 02:21:59;;;;;;;4.63;4.13;;;;;;;;;;5030690;28;20956;-68
2023/09/09 02:24:26;;;;;;;7.33;4.20;;;;;;;;;;5031339;28;20451;-68
2023/09/09 02:26:53;;;;;;;6.43;4.37;;;;;;;;;;5032226;28;20483;-69
2023/09/09 02:29:21;;;;;;;6.37;4.57;;;;;;;;;;5031080;28;20439;-69
2023/09/09 02:31:49;;;;;;;6.03;4.13;;;;;;;;;;5032088;28;20467;-68
2023/09/09 02:34:16;;;;;;;5.87;3.60;;;;;;;;;;5032507;28;20458;-69
2023/09/09 02:36:45;;;;;;;6.00;4.47;;;;;;;;;;5032041;28;20529;-68
2023/09/09 02:39:12;;;;;;;8.03;4.93;;;;;;;;;;5031257;28;20454;-69
2023/09/09 02:41:39;;;;;;;6.13;4.47;;;;;;;;;;5030614;28;20463;-69
2023/09/09 02:44:06;;;;;;;6.70;3.83;;;;;;;;;;5031370;28;20459;-68
2023/09/09 02:46:33;;;;;;;5.90;4.97;;;;;;;;;;5031685;28;20838;-69
2023/09/09 02:49:02;;;;;;;6.80;4.93;;;;;;;;;;5031547;28;20932;-69
2023/09/09 02:51:29;;;;;;;5.23;3.70;;;;;;;;;;5031086;28;20463;-69
2023/09/09 02:53:56;;;;;;;6.00;3.83;;;;;;;;;;5031128;28;20622;-69
2023/09/09 02:56:23;;;;;;;6.70;4.37;;;;;;;;;;5031811;28;20811;-68
2023/09/09 02:58:50;;;;;;;6.53;5.27;;;;;;;;;;5030386;28;20454;-69
2023/09/09 03:01:17;;;;;;;5.27;4.10;;;;;;;;;;5031756;28;20795;-69
2023/09/09 03:03:44;;;;;;;5.50;3.87;;;;;;;;;;5031912;28;20766;-68
2023/09/09 03:06:13;;;;;;;5.80;4.27;;;;;;;;;;5030947;28;20474;-69
2023/09/09 03:08:40;;;;;;;6.77;4.53;;;;;;;;;;5031748;28;20447;-69
2023/09/09 03:11:07;;;;;;;5.33;3.63;;;;;;;;;;5031728;28;20451;-69
2023/09/09 03:13:34;;;;;;;6.70;4.30;;;;;;;;;;5031666;28;20451;-69
2023/09/09 03:16:01;;;;;;;5.20;4.10;;;;;;;;;;5031012;28;20439;-69
2023/09/09 03:18:29;;;;;;;4.87;3.60;;;;;;;;;;5030435;28;20445;-69
2023/09/09 03:20:56;;;;;;;8.27;4.93;;;;;;;;;;5031359;28;20443;-68
2023/09/09 03:23:24;;;;;;;7.30;4.03;;;;;;;;;;5030698;28;20446;-69
2023/09/09 03:25:52;;;;;;;5.90;3.57;;;;;;;;;;5031533;28;20447;-69
2023/09/09 03:28:19;;;;;;;5.00;4.20;;;;;;;;;;5034069;28;20486;-69
2023/09/09 03:30:56;;;;;;;7.67;4.37;;;;;;;;;;5036432;28;20474;-70
2023/09/09 03:33:23;;;;;;;7.30;5.00;;;;;;;;;;5035767;28;20948;-68
2023/09/09 03:35:50;;;;;;;6.67;5.10;;;;;;;;;;5034369;28;20447;-69
2023/09/09 03:38:17;;;;;;;5.87;4.40;;;;;;;;;;5035425;28;20461;-68
2023/09/09 03:40:46;;;;;;;5.93;4.60;;;;;;;;;;5034785;28;20457;-67
2023/09/09 03:43:13;;;;;;;5.20;3.43;;;;;;;;;;5035500;28;20498;-68
2023/09/09 03:45:41;;;;;;;4.83;4.10;;;;;;;;;;5036120;28;20450;-69
2023/09/09 03:48:08;;;;;;;7.03;4.40;;;;;;;;;;5035850;28;20487;-69
2023/09/09 03:50:35;;;;;;;6.70;4.63;;;;;;;;;;5035600;28;20796;-68
2023/09/09 03:53:02;;;;;;;7.70;4.30;;;;;;;;;;5035312;28;20860;-69
2023/09/09 03:55:29;;;;;;;7.40;4.57;;;;;;;;;;5033944;28;20469;-69
2023/09/09 03:57:58;;;;;;;5.90;4.23;;;;;;;;;;5035410;28;20453;-69
2023/09/09 04:00:25;;;;;;;5.27;4.10;;;;;;;;;;5034766;28;20440;-68
2023/09/09 04:02:52;;;;;;;7.13;3.97;;;;;;;;;;5034962;28;20463;-70
2023/09/09 04:05:19;;;;;;;6.27;4.20;;;;;;;;;;5034581;28;20537;-69
2023/09/09 04:07:46;;;;;;;6.33;4.20;;;;;;;;;;5034849;28;20486;-69
2023/09/09 04:10:14;;;;;;;6.43;3.43;;;;;;;;;;5034756;28;20449;-69
2023/09/09 04:12:41;;;;;;;7.50;4.67;;;;;;;;;;5033722;28;20470;-69
2023/09/09 04:15:10;;;;;;;6.10;3.80;;;;;;;;;;5038783;28;20506;-69
2023/09/09 04:17:38;;;;;;;5.10;3.63;;;;;;;;;;5040280;28;20455;-68
2023/09/09 04:20:06;;;;;;;6.17;4.53;;;;;;;;;;5041101;28;20447;-68
2023/09/09 04:22:34;;;;;;;6.10;4.80;;;;;;;;;;5042649;28;20502;-68
2023/09/09 04:25:01;;;;;;;6.83;4.60;;;;;;;;;;5041797;28;20470;-68
2023/09/09 04:27:28;;;;;;;7.47;5.00;;;;;;;;;;5035313;28;20489;-69
2023/09/09 04:29:55;;;;;;;6.20;4.20;;;;;;;;;;5034293;28;21003;-68
2023/09/09 04:32:23;;;;;;;6.27;4.37;;;;;;;;;;5034072;28;20474;-69
2023/09/09 04:34:50;;;;;;;6.87;4.70;;;;;;;;;;5033802;28;20454;-69
2023/09/09 04:37:18;;;;;;;5.00;4.27;;;;;;;;;;5034234;28;20443;-68
2023/09/09 04:39:45;;;;;;;6.07;4.40;;;;;;;;;;5033484;28;20451;-68
2023/09/09 04:42:12;;;;;;;5.60;3.93;;;;;;;;;;5034419;28;20947;-68
2023/09/09 04:44:39;;;;;;;7.03;4.50;;;;;;;;;;5033839;28;20439;-69
2023/09/09 04:47:06;;;;;;;6.93;4.70;;;;;;;;;;5033088;28;20486;-68
2023/09/09 04:49:35;;;;;;;6.43;4.20;;;;;;;;;;5032677;28;20933;-69
2023/09/09 04:52:02;;;;;;;5.97;3.70;;;;;;;;;;5032885;28;20463;-68
2023/09/09 04:54:29;;;;;;;8.23;4.10;;;;;;;;;;5033888;28;20848;-68
2023/09/09 04:56:56;;;;;;;5.83;4.77;;;;;;;;;;5033517;28;20918;-69
2023/09/09 04:59:23;;;;;;;6.03;3.53;;;;;;;;;;5033435;28;20466;-68
2023/09/09 05:01:50;;;;;;;7.67;3.40;;;;;;;;;;5033480;28;20459;-68
2023/09/09 05:04:17;;;;;;;6.40;4.07;;;;;;;;;;5033414;28;20440;-68
2023/09/09 05:06:46;;;;;;;6.57;3.80;;;;;;;;;;5033550;28;20937;-68
2023/09/09 05:09:13;;;;;;;5.27;3.73;;;;;;;;;;5033216;28;20864;-68
2023/09/09 05:11:40;;;;;;;6.17;4.00;;;;;;;;;;5032898;28;20474;-69
2023/09/09 05:14:07;;;;;;;8.43;4.80;;;;;;;;;;5033088;28;20447;-69
2023/09/09 05:16:36;;;;;;;7.70;4.30;;;;;;;;;;5033043;28;20443;-68
2023/09/09 05:19:04;;;;;;;6.87;4.23;;;;;;;;;;5033510;28;20451;-68
2023/09/09 05:21:31;;;;;;;12.20;4.60;;;;;;;;;;5033194;28;20518;-69
2023/09/09 05:23:59;;;;;;;6.10;3.67;;;;;;;;;;5032316;28;20443;-69
2023/09/09 05:26:26;;;;;;;9.40;5.80;;;;;;;;;;5032755;28;20827;-68
2023/09/09 05:28:53;;;;;;;7.50;4.43;;;;;;;;;;5032452;28;20482;-69
2023/09/09 05:31:20;;;;;;;6.80;5.13;;;;;;;;;;5032869;28;20471;-68
2023/09/09 05:33:47;;;;;;;7.13;4.93;;;;;;;;;;5033342;28;20450;-68
2023/09/09 05:36:15;;;;;;;5.60;4.10;;;;;;;;;;5033535;28;20435;-69
2023/09/09 05:38:42;;;;;;;6.27;5.33;;;;;;;;;;5032819;28;20447;-68
2023/09/09 05:41:10;;;;;;;6.10;4.80;;;;;;;;;;5032682;28;20450;-69
2023/09/09 05:43:37;;;;;;;6.03;3.90;;;;;;;;;;5033056;28;20483;-68
2023/09/09 05:46:05;;;;;;;8.27;5.07;;;;;;;;;;5032229;28;20439;-69
2023/09/09 05:48:32;;;;;;;7.20;5.07;;;;;;;;;;5032722;28;20483;-68
2023/09/09 05:50:59;;;;;;;5.73;5.13;;;;;;;;;;5033291;28;20446;-68
2023/09/09 05:53:26;;;;;;;6.27;5.03;;;;;;;;;;5033250;28;20807;-68
2023/09/09 05:55:53;;;;;;;10.17;5.23;;;;;;;;;;5032440;28;20447;-67
2023/09/09 05:58:22;;;;;;;7.33;4.33;;;;;;;;;;5033121;28;20439;-70
2023/09/09 06:00:49;;;;;;;7.80;4.13;;;;;;;;;;5033067;28;20447;-68
2023/09/09 06:03:16;;;;;;;8.83;5.60;;;;;;;;;;5032141;28;20470;-68
2023/09/09 06:05:43;;;;;;;8.13;4.97;;;;;;;;;;5032482;28;20443;-68
2023/09/09 06:08:12;;;;;;;9.30;5.67;;;;;;;;;;5033160;28;20479;-68
2023/09/09 06:10:39;;;;;;;7.93;5.10;;;;;;;;;;5034149;28;20498;-68
2023/09/09 06:13:06;;;;;;;8.17;4.30;;;;;;;;;;5033176;28;20471;-67
2023/09/09 06:15:35;;;;;;;7.63;4.77;;;;;;;;;;5031866;28;20466;-68
2023/09/09 06:18:02;;;;;;;9.67;5.50;;;;;;;;;;5033800;28;20450;-68
2023/09/09 06:20:29;;;;;;;7.07;4.57;;;;;;;;;;5033664;28;20447;-68
2023/09/09 06:22:56;;;;;;;10.97;5.53;;;;;;;;;;5032741;28;20546;-67
2023/09/09 06:25:23;;;;;;;7.73;4.10;;;;;;;;;;5033452;28;20462;-68
2023/09/09 06:27:51;;;;;;;7.30;5.40;;;;;;;;;;5032008;28;20471;-67
2023/09/09 06:30:18;;;;;;;7.07;4.97;;;;;;;;;;5032348;28;20957;-68
2023/09/09 06:32:46;;;;;;;6.00;4.80;;;;;;;;;;5031978;28;20466;-67
2023/09/09 06:35:14;;;;;;;7.60;5.87;;;;;;;;;;5031160;28;20450;-67
2023/09/09 06:37:41;;;;;;;6.60;5.07;;;;;;;;;;5032026;28;20934;-68
2023/09/09 06:40:08;;;;;;;8.90;5.60;;;;;;;;;;5031599;28;20443;-69
2023/09/09 06:42:35;;;;;;;7.43;5.60;;;;;;;;;;5031003;28;20485;-68
2023/09/09 06:45:04;;;;;;;8.43;5.57;;;;;;;;;;5032243;28;20450;-68
2023/09/09 06:47:31;;;;;;;7.93;5.40;;;;;;;;;;5032095;28;21035;-69
2023/09/09 06:49:59;;;;;;;7.60;4.70;;;;;;;;;;5025323;28;20833;-67
2023/09/09 06:52:26;;;;;;;9.30;6.10;;;;;;;;;;5031120;28;20455;-67
2023/09/09 06:54:53;;;;;;;9.67;5.57;;;;;;;;;;5014350;28;20489;-68
2023/09/09 06:57:21;;;;;;;6.50;5.00;;;;;;;;;;5031327;28;20435;-68
2023/09/09 06:59:48;;;;;;;8.40;5.83;;;;;;;;;;5031249;28;20973;-68
2023/09/09 07:02:15;;;;;;;8.03;5.30;;;;;;;;;;5031524;28;20945;-69
2023/09/09 07:04:43;;;;;;;10.70;4.80;;;;;;;;;;5031524;28;20436;-68
2023/09/09 07:07:12;;;;;;;8.30;5.13;;;;;;;;;;5031904;28;20435;-67
2023/09/09 07:09:39;;;;;;;6.27;4.63;;;;;;;;;;5031709;28;20483;-67
2023/09/09 07:12:06;;;;;;;5.63;4.33;;;;;;;;;;5030755;28;20474;-68
2023/09/09 07:14:33;;;;;;;6.33;4.77;;;;;;;;;;5031073;28;20925;-67
2023/09/09 07:17:00;;;;;;;6.93;4.93;;;;;;;;;;5031155;28;20446;-68
2023/09/09 07:19:28;;;;;;;8.50;5.00;;;;;;;;;;5031447;28;20451;-68
2023/09/09 07:21:55;;;;;;;8.97;4.97;;;;;;;;;;5031580;28;20482;-68
2023/09/09 07:24:23;;;;;;;8.17;5.27;;;;;;;;;;5031986;28;20446;-68
2023/09/09 07:26:50;;;;;;;5.93;4.07;;;;;;;;;;5031165;28;20448;-68
2023/09/09 07:29:17;;;;;;;7.13;4.83;;;;;;;;;;5031379;28;20487;-67
2023/09/09 07:31:44;;;;;;;4.97;4.30;;;;;;;;;;5030509;28;20469;-67
2023/09/09 07:34:11;;;;;;;7.10;5.10;;;;;;;;;;5030602;28;20956;-68
2023/09/09 07:36:38;;;;;;;7.50;4.40;;;;;;;;;;5031787;28;20444;-68
2023/09/09 07:39:06;;;;;;;6.90;4.90;;;;;;;;;;5031145;28;20439;-67
2023/09/09 07:41:34;;;;;;;6.10;4.47;;;;;;;;;;5031315;28;20884;-68
2023/09/09 07:44:01;;;;;;;5.20;4.33;;;;;;;;;;5031080;28;20451;-68
2023/09/09 07:46:29;;;;;;;6.50;5.10;;;;;;;;;;5031012;28;20440;-67
2023/09/09 07:48:56;;;;;;;7.00;5.43;;;;;;;;;;5025324;28;20492;-67
2023/09/09 07:51:23;;;;;;;7.27;5.50;;;;;;;;;;5018217;28;20463;-68
2023/09/09 07:53:52;;;;;;;7.73;5.63;;;;;;;;;;5031322;28;20475;-68
2023/09/09 07:56:19;;;;;;;6.40;5.40;;;;;;;;;;5018431;28;20538;-68
2023/09/09 07:58:47;;;;;;;6.93;5.27;;;;;;;;;;5030854;28;20442;-67
2023/09/09 08:01:14;;;;;;;10.20;6.17;;;;;;;;;;5028372;28;20451;-67
2023/09/09 08:03:41;;;;;;;6.47;5.67;;;;;;;;;;5031811;28;20758;-68
2023/09/09 08:06:08;;;;;;;6.97;5.40;;;;;;;;;;5031709;28;20882;-67
2023/09/09 08:08:36;;;;;;;7.60;5.03;;;;;;;;;;5031090;28;20949;-67
2023/09/09 08:11:03;;;;;;;7.00;4.73;;;;;;;;;;5025656;28;20454;-68
2023/09/09 08:13:30;;;;;;;7.37;5.50;;;;;;;;;;5031460;28;20439;-68
2023/09/09 08:15:59;;;;;;;6.70;5.50;;;;;;;;;;5033834;28;20863;-68
2023/09/09 08:18:26;;;;;;;8.00;5.00;;;;;;;;;;5034131;28;20442;-68
2023/09/09 08:20:54;;;;;;;5.83;4.93;;;;;;;;;;5030631;28;20463;-67
2023/09/09 08:23:22;;;;;;;7.10;5.20;;;;;;;;;;5034646;28;20462;-68
2023/09/09 08:25:49;;;;;;;7.33;5.43;;;;;;;;;;5034545;28;20439;-68
2023/09/09 08:28:16;;;;;;;7.07;5.67;;;;;;;;;;5032744;28;20486;-68
2023/09/09 08:30:43;;;;;;;6.20;5.20;;;;;;;;;;5034794;28;20476;-67
2023/09/09 08:33:12;;;;;;;6.73;5.30;;;;;;;;;;5034153;28;20462;-68
2023/09/09 08:35:39;;;;;;;8.70;5.17;;;;;;;;;;5033742;28;20442;-67
2023/09/09 08:38:06;;;;;;;7.70;5.13;;;;;;;;;;5034663;28;20454;-68
2023/09/09 08:40:35;;;;;;;6.00;5.40;;;;;;;;;;5034767;28;20476;-68
2023/09/09 08:43:07;;;;;;;6.03;5.10;;;;;;;;;;5033703;28;20585;-68
2023/09/09 08:45:37;;;;;;;7.00;5.40;;;;;;;;;;5034944;28;20431;-68
2023/09/09 08:48:06;;;;;;;6.30;4.80;;;;;;;;;;5034933;28;20527;-67
2023/09/09 08:50:38;;;;;;;9.80;6.10;;;;;;;;;;5035120;28;20447;-68
2023/09/09 08:53:05;;;;;;;6.40;5.20;;;;;;;;;;5034375;28;20463;-68
2023/09/09 08:55:33;;;;;;;8.50;5.50;;;;;;;;;;5036596;28;20443;-68
2023/09/09 08:58:00;;;;;;;5.87;5.27;;;;;;;;;;5041358;28;20454;-68
2023/09/09 09:00:30;;;;;;;9.93;5.67;;;;;;;;;;5039879;28;20439;-68
2023/09/09 09:02:58;;;;;;;5.10;4.60;;;;;;;;;;5036004;28;20474;-68
2023/09/09 09:05:25;;;;;;;6.80;5.40;;;;;;;;;;5034726;28;20447;-67
2023/09/09 09:07:53;;;;;;;7.97;5.60;;;;;;;;;;5034561;28;20930;-68
2023/09/09 09:10:21;;;;;;;7.87;6.23;;;;;;;;;;5034726;28;20985;-68
2023/09/09 09:12:49;;;;;;;9.50;5.23;;;;;;;;;;5036825;28;20466;-68
2023/09/09 09:15:16;;;;;;;7.20;5.27;;;;;;;;;;5033730;28;20452;-68
2023/09/09 09:17:44;;;;;;;7.60;6.10;;;;;;;;;;5023894;28;20481;-68
2023/09/09 09:20:24;;;;;;;8.23;6.13;;;;;;;;;;5033310;28;20534;-68
2023/09/09 09:22:53;;;;;;;7.13;5.60;;;;;;;;;;5033591;28;20474;-68
2023/09/09 09:25:21;;;;;;;5.73;5.13;;;;;;;;;;5033611;28;20439;-68
2023/09/09 09:27:48;;;;;;;6.23;4.73;;;;;;;;;;5033757;28;20450;-69
2023/09/09 09:30:16;;;;;;;8.50;5.83;;;;;;;;;;5033391;28;20481;-68
2023/09/09 09:32:43;;;;;;;9.80;6.33;;;;;;;;;;5033012;28;20554;-68
2023/09/09 09:35:22;;;;;;;7.87;5.67;;;;;;;;;;5031028;28;20451;-69
2023/09/09 09:37:52;;;;;;;5.77;5.20;;;;;;;;;;5028173;28;20470;-69
2023/09/09 09:40:21;;;;;;;6.60;5.40;;;;;;;;;;5032888;28;20489;-68
2023/09/09 09:42:48;;;;;;;7.77;4.90;;;;;;;;;;5033178;28;20475;-68
2023/09/09 09:45:16;;;;;;;7.73;5.60;;;;;;;;;;5033406;28;20447;-68
2023/09/09 09:47:43;;;;;;;10.53;6.20;;;;;;;;;;5032699;28;20443;-67
2023/09/09 09:50:18;;;;;;;6.17;4.90;;;;;;;;;;5032791;28;20479;-68
2023/09/09 09:52:48;;;;;;;6.70;4.80;;;;;;;;;;5032622;28;20871;-67
2023/09/09 09:55:17;;;;;;;7.07;5.10;;;;;;;;;;5032551;28;20447;-67
2023/09/09 09:57:46;;;;;;;8.80;5.23;;;;;;;;;;5032515;28;20443;-68
2023/09/09 10:00:15;;;;;;;8.40;4.80;;;;;;;;;;5032059;28;20917;-68
2023/09/09 10:02:42;;;;;;;6.80;5.80;;;;;;;;;;5033310;28;20466;-68
2023/09/09 10:05:12;;;;;;;7.87;5.23;;;;;;;;;;5033128;28;20466;-68
2023/09/09 10:07:40;;;;;;;6.23;4.70;;;;;;;;;;5018926;28;20995;-68
2023/09/09 10:10:10;;;;;;;5.63;5.03;;;;;;;;;;5032862;28;20486;-68
2023/09/09 10:12:42;;;;;;;7.63;4.90;;;;;;;;;;5032388;28;20949;-68
2023/09/09 10:15:10;;;;;;;6.60;5.87;;;;;;;;;;5031974;28;20470;-68
2023/09/09 10:17:38;;;;;;;7.40;5.20;;;;;;;;;;5032740;28;20438;-68
2023/09/09 10:20:05;;;;;;;7.00;4.83;;;;;;;;;;5032376;28;20439;-67
2023/09/09 10:22:33;;;;;;;5.63;4.60;;;;;;;;;;5032624;28;20463;-67
2023/09/09 10:25:03;;;;;;;6.63;5.13;;;;;;;;;;5031481;28;20515;-67
2023/09/09 10:27:30;;;;;;;6.07;5.00;;;;;;;;;;5032707;28;20451;-69
2023/09/09 10:29:59;;;;;;;5.37;4.47;;;;;;;;;;5032701;28;20493;-68
2023/09/09 10:32:27;;;;;;;5.40;4.40;;;;;;;;;;5031172;28;20463;-68
2023/09/09 10:34:55;;;;;;;5.40;4.77;;;;;;;;;;5031292;28;20450;-67
2023/09/09 10:37:22;;;;;;;7.33;5.20;;;;;;;;;;5031189;28;20450;-69
2023/09/09 10:39:50;;;;;;;7.30;5.40;;;;;;;;;;5032148;28;20827;-68
2023/09/09 10:42:18;;;;;;;6.77;5.50;;;;;;;;;;5053105;22;20482;-67
2023/09/09 10:44:48;;;;;;;8.13;5.33;;;;;;;;;;5045633;28;20956;-67
2023/09/09 10:47:16;;;;;;;5.70;5.10;;;;;;;;;;5047380;28;20446;-69
2023/09/09 10:49:45;;;;;;;6.93;4.80;;;;;;;;;;5052458;28;20477;-68
2023/09/09 10:52:27;;;;;;;5.97;4.77;;;;;;;;;;5057589;28;20462;-68
2023/09/09 10:55:10;;;;;;;6.00;5.50;;;;;;;;;;5039897;28;20438;-68
2023/09/09 10:57:39;;;;;;;7.50;4.87;;;;;;;;;;5051475;28;20448;-68
2023/09/09 11:00:09;;;;;;;7.90;5.23;;;;;;;;;;5050584;28;20434;-67
2023/09/09 11:02:44;;;;;;;7.73;4.90;;;;;;;;;;5050966;28;20550;-68
2023/09/09 11:05:13;;;;;;;6.77;4.93;;;;;;;;;;5052484;28;20449;-68
2023/09/09 11:07:41;;;;;;;5.27;4.40;;;;;;;;;;5027194;28;20452;-68
2023/09/09 11:10:08;;;;;;;4.87;4.03;;;;;;;;;;5037844;28;20478;-68
2023/09/09 11:12:37;;;;;;;6.30;4.53;;;;;;;;;;5053266;28;20842;-68
2023/09/09 11:15:08;;;;;;;6.23;4.77;;;;;;;;;;5052792;28;20472;-67
2023/09/09 11:17:35;;;;;;;5.30;4.73;;;;;;;;;;5046760;28;20438;-67
2023/09/09 11:20:02;;;;;;;8.20;5.23;;;;;;;;;;5041760;28;20448;-68
2023/09/09 11:22:31;;;;;;;6.67;5.10;;;;;;;;;;5051380;28;20523;-68
2023/09/09 11:24:59;;;;;;;5.23;4.70;;;;;;;;;;5049695;28;20508;-67
2023/09/09 11:27:26;;;;;;;6.80;5.20;;;;;;;;;;5046244;28;20501;-67
2023/09/09 11:29:54;;;;;;;5.60;4.37;;;;;;;;;;5037660;28;20989;-68
2023/09/09 11:32:25;;;;;;;6.20;4.30;;;;;;;;;;5051057;28;20477;-68
2023/09/09 11:34:53;;;;;;;4.60;3.93;;;;;;;;;;5051556;28;20280;-67
2023/09/09 11:37:20;;;;;;;5.20;4.70;;;;;;;;;;5051190;28;20203;-68
2023/09/09 11:39:48;;;;;;;8.33;4.40;;;;;;;;;;5045194;28;20198;-67
2023/09/09 11:42:16;;;;;;;6.17;4.13;;;;;;;;;;5039477;28;20216;-67
2023/09/09 11:44:43;;;;;;;4.87;3.60;;;;;;;;;;5046067;28;20207;-68
2023/09/09 11:47:11;;;;;;;5.20;3.77;;;;;;;;;;5050731;28;20269;-67
2023/09/09 11:49:39;;;;;;;5.70;3.67;;;;;;;;;;5049396;28;20576;-68
2023/09/09 11:52:06;;;;;;;4.70;3.22;;;;;;;;;;5055037;28;20215;-68
2023/09/09 11:54:33;;;;;;;4.57;3.67;;;;;;;;;;5054254;28;20627;-68
2023/09/09 11:57:08;;;;;;;6.23;2.67;;;;;;;;;;5042593;28;20208;-68
2023/09/09 11:59:44;;;;;;;3.53;3.00;;;;;;;;;;5030490;28;20209;-68
2023/09/09 12:02:18;;;;;;;6.37;3.10;;;;;;;;;;5048110;28;20214;-68
2023/09/09 12:04:53;;;;;;;4.17;3.30;;;;;;;;;;5054845;28;20208;-68
2023/09/09 12:07:20;;;;;;;11.27;5.40;;;;;;;;;;5054130;28;20669;-68
2023/09/09 12:09:48;;;;;;;4.50;3.90;;;;;;;;;;5045111;28;20222;-68
2023/09/09 12:12:16;;;;;;;12.45;6.03;;;;;;;;;;5051881;28;20743;-69
2023/09/09 12:14:44;;;;;;;4.13;3.40;;;;;;;;;;5054854;28;20204;-68
2023/09/09 12:17:11;;;;;;;6.38;3.45;;;;;;;;;;5048810;28;20203;-68
2023/09/09 12:19:38;;;;;;;13.10;6.82;;;;;;;;;;5050821;28;20578;-68
2023/09/09 12:22:06;;;;;;;9.18;4.05;;;;;;;;;;5054817;28;20290;-68
2023/09/09 12:24:40;;;;;;;5.95;3.03;;;;;;;;;;5051316;28;20206;-69
2023/09/09 12:27:08;;;;;;;7.63;2.90;;;;;;;;;;5028234;28;20203;-68
2023/09/09 12:29:45;;;;;;;5.15;3.35;;;;;;;;;;5040622;28;20216;-68
2023/09/09 12:32:12;;;;;;;7.63;2.95;;;;;;;;;;5051579;28;20649;-68
2023/09/09 12:34:39;;;;;;;4.47;3.67;;;;;;;;;;5053315;28;20204;-69
2023/09/09 12:37:07;;;;;;;5.30;3.58;;;;;;;;;;5054396;28;20211;-68
2023/09/09 12:39:34;;;;;;;5.05;3.53;;;;;;;;;;5049780;28;20200;-68
2023/09/09 12:42:01;;;;;;;5.13;4.13;;;;;;;;;;5053447;28;20231;-68
2023/09/09 12:44:28;;;;;;;4.60;2.97;;;;;;;;;;5046030;28;20237;-68
2023/09/09 12:46:57;;;;;;;4.07;2.90;;;;;;;;;;5053866;28;20222;-68
2023/09/09 12:49:24;;;;;;;8.50;3.85;;;;;;;;;;5048436;28;20291;-68
2023/09/09 12:51:51;;;;;;;4.72;3.05;;;;;;;;;;5043883;28;20723;-68
2023/09/09 12:54:18;;;;;;;3.55;3.13;;;;;;;;;;5052347;28;20206;-68
2023/09/09 12:56:45;;;;;;;4.63;2.95;;;;;;;;;;5044848;28;20211;-68
2023/09/09 12:59:13;;;;;;;5.57;3.22;;;;;;;;;;5053649;28;20196;-69
2023/09/09 13:01:40;;;;;;;4.50;3.67;;;;;;;;;;5049324;28;20311;-68
2023/09/09 13:04:08;;;;;;;5.15;3.72;;;;;;;;;;5051741;28;20708;-68
2023/09/09 13:06:36;;;;;;;4.88;4.38;;;;;;;;;;5044775;28;20210;-68
2023/09/09 13:09:03;;;;;;;3.58;3.17;;;;;;;;;;5051565;28;20227;-69
2023/09/09 13:11:30;;;;;;;4.45;3.33;;;;;;;;;;5045170;28;20223;-68
2023/09/09 13:13:57;;;;;;;3.58;3.22;;;;;;;;;;5054308;28;20581;-69
2023/09/09 13:16:24;;;;;;;4.45;3.13;;;;;;;;;;5045700;28;20207;-70
2023/09/09 13:18:51;;;;;;;3.45;2.67;;;;;;;;;;5052311;28;20639;-67
2023/09/09 13:21:20;;;;;;;6.43;3.90;;;;;;;;;;5039075;28;20650;-68
2023/09/09 13:23:47;;;;;;;6.15;3.72;;;;;;;;;;5053078;28;20203;-67
2023/09/09 13:26:14;;;;;;;4.28;3.83;;;;;;;;;;5049292;28;20196;-68
2023/09/09 13:28:41;;;;;;;5.30;3.22;;;;;;;;;;5054460;28;20674;-68
2023/09/09 13:31:09;;;;;;;4.60;3.70;;;;;;;;;;5047065;28;20241;-69
2023/09/09 13:33:36;;;;;;;5.53;4.10;;;;;;;;;;5046883;28;20199;-67
2023/09/09 13:36:03;;;;;;;8.27;4.68;;;;;;;;;;5041630;28;20224;-67
2023/09/09 13:38:32;;;;;;;9.73;3.75;;;;;;;;;;5053272;28;20211;-68
2023/09/09 13:41:00;;;;;;;3.45;2.97;;;;;;;;;;5049148;28;20218;-68
2023/09/09 13:43:27;;;;;;;5.22;3.58;;;;;;;;;;5053279;28;20211;-68
2023/09/09 13:45:54;;;;;;;3.72;3.15;;;;;;;;;;5052750;28;20205;-68
2023/09/09 13:48:21;;;;;;;5.35;3.97;;;;;;;;;;5053525;28;20207;-68
2023/09/09 13:50:48;;;;;;;4.25;3.85;;;;;;;;;;5051507;28;20220;-68
2023/09/09 13:53:16;;;;;;;4.65;3.28;;;;;;;;;;5052740;28;20310;-68
2023/09/09 13:55:44;;;;;;;5.18;3.10;;;;;;;;;;5053328;28;20298;-68
2023/09/09 13:58:11;;;;;;;4.70;3.30;;;;;;;;;;5047677;28;20218;-68
2023/09/09 14:00:38;;;;;;;4.78;3.88;;;;;;;;;;5039856;28;20223;-68
2023/09/09 14:03:05;;;;;;;4.05;2.90;;;;;;;;;;5053144;28;20219;-67
2023/09/09 14:05:33;;;;;;;4.28;3.63;;;;;;;;;;5041850;28;20565;-68
2023/09/09 14:08:00;;;;;;;4.22;3.83;;;;;;;;;;5053229;28;20199;-69
2023/09/09 14:10:27;;;;;;;4.45;3.75;;;;;;;;;;5042619;28;20216;-69
2023/09/09 14:12:56;;;;;;;5.82;2.88;;;;;;;;;;5049630;28;20268;-69
2023/09/09 14:15:23;;;;;;;4.28;3.35;;;;;;;;;;5053680;28;20207;-68
2023/09/09 14:17:50;;;;;;;5.18;3.70;;;;;;;;;;5052565;28;20311;-69
2023/09/09 14:20:18;;;;;;;5.70;3.63;;;;;;;;;;5050797;28;20306;-70
2023/09/09 14:22:46;;;;;;;3.67;3.20;;;;;;;;;;5052774;28;20234;-69
2023/09/09 14:25:13;;;;;;;6.35;4.10;;;;;;;;;;5052990;28;20241;-70
2023/09/09 14:27:41;;;;;;;3.70;3.40;;;;;;;;;;5038927;28;20200;-70
2023/09/09 14:30:10;;;;;;;6.28;3.88;;;;;;;;;;5043397;28;20222;-69
2023/09/09 14:32:37;;;;;;;4.20;3.80;;;;;;;;;;5052777;28;20778;-69
2023/09/09 14:35:05;;;;;;;7.20;4.03;;;;;;;;;;5051933;28;20210;-70
2023/09/09 14:37:32;;;;;;;4.45;3.33;;;;;;;;;;5052873;28;20211;-69
2023/09/09 14:39:59;;;;;;;4.35;3.53;;;;;;;;;;5050168;28;20230;-69
2023/09/09 14:42:26;;;;;;;3.70;3.17;;;;;;;;;;5047889;28;20296;-70
2023/09/09 14:44:53;;;;;;;4.15;3.75;;;;;;;;;;5052709;28;20203;-69
2023/09/09 14:47:22;;;;;;;5.25;3.78;;;;;;;;;;5052878;28;20203;-69